createdAt,value
2023-01-15T00:02:44.649Z,77.40
2023-01-15T00:06:47.533Z,77.30
2023-01-15T00:10:50.283Z,77.40
2023-01-15T00:14:53.757Z,77.30
2023-01-15T00:18:59.356Z,77.50
2023-01-15T00:23:02.241Z,77.50
2023-01-15T00:27:23.325Z,77.40
2023-01-15T00:31:26.411Z,77.30
2023-01-15T00:35:29.223Z,77.50
2023-01-15T00:39:32.057Z,77.80
2023-01-15T00:43:34.944Z,77.90
2023-01-15T00:47:39.849Z,77.80
2023-01-15T00:51:42.801Z,77.90
2023-01-15T00:55:45.625Z,77.70
2023-01-15T00:59:48.657Z,77.90
2023-01-15T01:03:53.123Z,77.90
2023-01-15T01:07:59.460Z,77.70
2023-01-15T01:12:04.070Z,77.80
2023-01-15T01:16:25.503Z,77.90
2023-01-15T01:20:29.105Z,78.00
2023-01-15T01:24:31.978Z,78.00
2023-01-15T01:28:35.094Z,78.20
2023-01-15T01:32:37.905Z,78.80
2023-01-15T01:36:42.578Z,78.70
2023-01-15T01:40:46.572Z,78.80
2023-01-15T01:44:52.475Z,78.80
2023-01-15T01:49:02.609Z,78.90
2023-01-15T01:53:16.988Z,78.70
2023-01-15T01:57:22.482Z,78.80
2023-01-15T02:01:26.731Z,78.60
2023-01-15T02:05:32.412Z,78.60
2023-01-15T02:09:35.175Z,78.70
2023-01-15T02:14:12.920Z,78.70
2023-01-15T02:18:34.999Z,78.70
2023-01-15T02:23:19.813Z,78.70
2023-01-15T02:27:24.933Z,78.70
2023-01-15T02:31:36.293Z,78.80
2023-01-15T02:35:46.795Z,78.90
2023-01-15T02:39:51.671Z,78.70
2023-01-15T02:43:57.073Z,78.60
2023-01-15T02:48:08.246Z,78.70
2023-01-15T02:52:27.950Z,78.70
2023-01-15T02:56:36.069Z,78.80
2023-01-15T03:00:42.885Z,79.00
2023-01-15T03:04:55.535Z,79.60
2023-01-15T03:08:58.931Z,79.30
2023-01-15T03:13:03.676Z,79.50
2023-01-15T03:17:28.572Z,79.90
2023-01-15T03:21:41.457Z,79.80
2023-01-15T03:25:49.516Z,79.50
2023-01-15T03:29:58.913Z,79.70
2023-01-15T03:34:02.588Z,79.50
2023-01-15T03:38:05.668Z,79.40
2023-01-15T03:42:35.604Z,79.30
2023-01-15T03:46:55.986Z,79.30
2023-01-15T03:51:17.178Z,79.50
2023-01-15T03:55:30.646Z,79.60
2023-01-15T03:59:55.684Z,79.60
2023-01-15T04:04:01.223Z,79.60
2023-01-15T04:08:06.758Z,79.50
2023-01-15T04:12:11.598Z,79.60
2023-01-15T04:16:26.355Z,79.70
2023-01-15T04:20:29.755Z,79.70
2023-01-15T04:24:33.238Z,79.80
2023-01-15T04:28:36.033Z,79.50
2023-01-15T04:32:38.929Z,79.60
2023-01-15T04:36:42.786Z,79.50
2023-01-15T04:41:04.093Z,79.40
2023-01-15T04:45:07.440Z,79.30
2023-01-15T04:49:13.469Z,79.30
2023-01-15T04:53:16.267Z,79.50
2023-01-15T04:57:19.053Z,79.60
2023-01-15T05:01:21.991Z,79.70
2023-01-15T05:05:25.079Z,79.80
2023-01-15T05:09:28.258Z,79.90
2023-01-15T05:13:33.359Z,80.00
2023-01-15T05:17:36.425Z,80.00
2023-01-15T05:21:42.741Z,80.60
2023-01-15T05:25:45.587Z,80.90
2023-01-15T05:29:48.474Z,80.70
2023-01-15T05:33:52.459Z,80.50
2023-01-15T05:37:55.384Z,80.50
2023-01-15T05:41:58.403Z,80.50
2023-01-15T05:46:08.202Z,80.50
2023-01-15T05:50:11.338Z,80.70
2023-01-15T05:54:26.513Z,80.90
2023-01-15T05:58:29.420Z,80.90
2023-01-15T06:02:32.212Z,80.90
2023-01-15T06:06:35.882Z,80.90
2023-01-15T06:10:38.748Z,80.80
2023-01-15T06:14:41.628Z,80.80
2023-01-15T06:18:44.601Z,80.70
2023-01-15T06:22:49.423Z,80.60
2023-01-15T06:26:54.393Z,80.90
2023-01-15T06:30:57.187Z,80.80
2023-01-15T06:34:59.951Z,80.70
2023-01-15T06:39:05.370Z,80.60
2023-01-15T06:43:29.297Z,80.70
2023-01-15T06:47:32.007Z,80.70
2023-01-15T06:51:34.776Z,80.50
2023-01-15T06:55:37.572Z,80.50
2023-01-15T06:59:40.281Z,80.40
2023-01-15T07:03:43.246Z,80.30
2023-01-15T07:07:46.107Z,80.30
2023-01-15T07:11:51.757Z,80.50
2023-01-15T07:15:54.716Z,80.70
2023-01-15T07:19:57.653Z,80.70
2023-01-15T07:24:01.136Z,80.70
2023-01-15T07:28:04.217Z,80.70
2023-01-15T07:32:07.056Z,80.60
2023-01-15T07:36:10.566Z,80.50
2023-01-15T07:40:13.382Z,80.40
2023-01-15T07:44:35.106Z,80.50
2023-01-15T07:48:56.655Z,80.60
2023-01-15T07:52:59.444Z,80.50
2023-01-15T07:57:02.758Z,80.40
2023-01-15T08:01:05.858Z,80.20
2023-01-15T08:05:11.723Z,80.10
2023-01-15T08:09:14.759Z,80.10
2023-01-15T08:13:36.167Z,80.10
2023-01-15T08:17:41.544Z,80.00
2023-01-15T08:22:04.664Z,80.00
2023-01-15T08:26:07.442Z,80.30
2023-01-15T08:30:14.269Z,80.40
2023-01-15T08:34:19.235Z,80.10
2023-01-15T08:38:21.967Z,80.00
2023-01-15T08:42:24.680Z,79.90
2023-01-15T08:46:27.683Z,80.00
2023-01-15T08:50:30.494Z,80.00
2023-01-15T08:54:33.497Z,80.00
2023-01-15T08:58:36.282Z,80.00
2023-01-15T09:02:38.989Z,79.90
2023-01-15T09:06:43.125Z,79.90
2023-01-15T09:10:45.866Z,79.90
2023-01-15T09:15:02.933Z,79.80
2023-01-15T09:19:07.871Z,79.90
2023-01-15T09:23:10.703Z,79.70
2023-01-15T09:27:15.020Z,79.60
2023-01-15T09:31:17.861Z,79.40
2023-01-15T09:35:22.511Z,79.30
2023-01-15T09:39:25.291Z,79.20
2023-01-15T09:43:38.833Z,79.50
2023-01-15T09:48:03.559Z,79.60
2023-01-15T09:52:33.194Z,79.60
2023-01-15T09:56:37.866Z,79.50
2023-01-15T10:00:47.870Z,79.30
2023-01-15T10:05:17.399Z,79.30
2023-01-15T10:09:31.784Z,79.40
2023-01-15T10:14:06.830Z,79.40
2023-01-15T10:18:26.241Z,79.30
2023-01-15T10:22:58.782Z,79.10
2023-01-15T10:27:19.424Z,78.90
2023-01-15T10:31:26.239Z,78.80
2023-01-15T10:35:49.878Z,78.70
2023-01-15T10:40:17.245Z,78.80
2023-01-15T10:45:06.291Z,78.60
2023-01-15T10:49:17.892Z,78.40
2023-01-15T10:53:45.498Z,78.20
2023-01-15T10:58:10.576Z,77.80
2023-01-15T11:02:22.642Z,77.60
2023-01-15T11:06:28.231Z,77.50
2023-01-15T11:10:32.403Z,77.50
2023-01-15T11:15:03.110Z,77.40
2023-01-15T11:19:37.188Z,77.20
2023-01-15T11:23:40.192Z,77.10
2023-01-15T11:27:43.014Z,77.00
2023-01-15T11:31:45.764Z,77.00
2023-01-15T11:35:58.334Z,76.90
2023-01-15T11:40:09.417Z,77.10
2023-01-15T11:44:31.497Z,77.00
2023-01-15T11:49:05.760Z,76.40
2023-01-15T11:53:18.830Z,74.90
2023-01-15T11:57:31.360Z,74.00
2023-01-15T12:01:37.382Z,73.50
2023-01-15T12:06:06.358Z,72.50
2023-01-15T12:10:40.859Z,72.50
2023-01-15T12:15:09.090Z,72.20
2023-01-15T12:19:40.802Z,71.90
2023-01-15T12:23:56.838Z,71.30
2023-01-15T12:28:02.764Z,70.90
2023-01-15T12:32:16.133Z,70.60
2023-01-15T12:36:49.277Z,70.30
2023-01-15T12:53:43.443Z,70.00
2023-01-15T12:57:53.428Z,69.40
2023-01-15T13:10:28.319Z,67.90
2023-01-15T13:14:31.278Z,67.90
2023-01-15T13:18:48.189Z,67.40
2023-01-15T13:23:09.304Z,66.90
2023-01-15T13:27:24.309Z,66.90
2023-01-15T13:31:58.658Z,67.20
2023-01-15T13:36:27.294Z,66.70
2023-01-15T13:53:06.658Z,66.30
2023-01-15T13:57:36.691Z,66.00
2023-01-15T14:02:11.699Z,66.00
2023-01-15T14:06:09.725Z,66.20
2023-01-15T14:10:19.691Z,65.80
2023-01-15T14:14:37.914Z,66.10
2023-01-15T14:18:50.304Z,65.80
2023-01-15T14:23:37.691Z,65.70
2023-01-15T14:27:56.730Z,65.70
2023-01-15T14:32:22.438Z,66.10
2023-01-15T14:36:31.917Z,66.30
2023-01-15T14:40:36.697Z,65.90
2023-01-15T14:44:43.209Z,65.40
2023-01-15T14:48:46.066Z,65.30
2023-01-15T14:52:50.778Z,65.10
2023-01-15T14:56:59.795Z,64.70
2023-01-15T15:01:41.735Z,64.60
2023-01-15T15:05:46.111Z,64.70
2023-01-15T15:10:10.801Z,64.70
2023-01-15T15:14:16.192Z,64.60
2023-01-15T15:18:32.565Z,64.80
2023-01-15T15:22:38.756Z,64.90
2023-01-15T15:26:42.002Z,65.20
2023-01-15T15:30:46.692Z,65.30
2023-01-15T15:34:53.026Z,65.20
2023-01-15T15:39:04.646Z,65.00
2023-01-15T15:43:50.845Z,65.10
2023-01-15T15:48:15.377Z,64.80
2023-01-15T15:52:23.161Z,64.90
2023-01-15T15:56:26.601Z,65.40
2023-01-15T16:00:36.074Z,66.00
2023-01-15T16:04:47.401Z,66.40
2023-01-15T16:09:04.748Z,66.90
2023-01-15T16:13:16.789Z,67.30
2023-01-15T16:17:43.640Z,67.70
2023-01-15T16:21:47.006Z,68.20
2023-01-15T16:26:08.103Z,68.60
2023-01-15T16:30:14.970Z,69.20
2023-01-15T16:34:21.478Z,69.20
2023-01-15T16:38:26.107Z,69.20
2023-01-15T16:42:40.268Z,69.50
2023-01-15T16:47:21.565Z,70.20
2023-01-15T16:51:24.907Z,70.90
2023-01-15T16:55:45.906Z,71.60
2023-01-15T17:00:00.986Z,72.50
2023-01-15T17:04:04.827Z,73.50
2023-01-15T17:08:17.993Z,73.70
2023-01-15T17:12:39.531Z,74.20
2023-01-15T17:16:42.410Z,74.20
2023-01-15T17:20:46.149Z,74.30
2023-01-15T17:24:50.522Z,74.20
2023-01-15T17:28:53.608Z,74.00
2023-01-15T17:32:59.791Z,73.80
2023-01-15T17:37:02.691Z,73.60
2023-01-15T17:41:08.427Z,73.50
2023-01-15T17:45:20.072Z,73.40
2023-01-15T17:49:22.789Z,73.40
2023-01-15T17:53:28.518Z,73.40
2023-01-15T17:58:10.124Z,73.50
2023-01-15T18:02:34.738Z,73.60
2023-01-15T18:06:38.266Z,73.80
2023-01-15T18:10:41.250Z,74.10
2023-01-15T18:14:44.725Z,74.30
2023-01-15T18:18:47.692Z,74.50
2023-01-15T18:22:50.544Z,74.60
2023-01-15T18:26:53.700Z,74.80
2023-01-15T18:30:56.423Z,75.00
2023-01-15T18:34:59.275Z,75.10
2023-01-15T18:39:06.387Z,75.50
2023-01-15T18:43:28.321Z,75.70
2023-01-15T18:47:31.322Z,75.80
2023-01-15T18:51:34.112Z,76.20
2023-01-15T18:55:36.962Z,76.50
2023-01-15T18:59:52.753Z,76.70
2023-01-15T19:03:58.697Z,77.10
2023-01-15T19:08:01.705Z,77.60
2023-01-15T19:12:06.331Z,78.00
2023-01-15T19:16:28.416Z,78.50
2023-01-15T19:20:31.244Z,78.80
2023-01-15T19:24:35.334Z,79.10
2023-01-15T19:28:38.126Z,79.10
2023-01-15T19:33:05.031Z,79.10
2023-01-15T19:37:08.296Z,79.10
2023-01-15T19:41:32.909Z,79.00
2023-01-15T19:45:58.184Z,79.00
2023-01-15T19:50:19.617Z,78.90
2023-01-15T19:54:42.332Z,78.60
2023-01-15T19:58:45.124Z,78.60
2023-01-15T20:02:48.195Z,78.60
2023-01-15T20:06:53.863Z,78.40
2023-01-15T20:10:56.694Z,78.50
2023-01-15T20:15:00.069Z,78.50
2023-01-15T20:19:02.798Z,78.40
2023-01-15T20:23:06.284Z,78.50
2023-01-15T20:27:13.982Z,78.30
2023-01-15T20:31:18.417Z,78.30
2023-01-15T20:35:24.731Z,78.30
2023-01-15T20:39:27.550Z,78.00
2023-01-15T20:43:48.705Z,77.60
2023-01-15T20:48:09.946Z,77.40
2023-01-15T20:52:12.784Z,77.60
2023-01-15T20:56:16.774Z,77.30
2023-01-15T21:00:23.083Z,77.20
2023-01-15T21:04:26.046Z,76.80
2023-01-15T21:08:29.532Z,76.40
2023-01-15T21:12:33.253Z,76.10
2023-01-15T21:16:36.109Z,76.00
2023-01-15T21:20:39.455Z,75.90
2023-01-15T21:24:42.342Z,75.80
2023-01-15T21:28:45.112Z,75.60
2023-01-15T21:32:48.808Z,75.30
2023-01-15T21:36:51.609Z,75.40
2023-01-15T21:40:54.284Z,75.40
2023-01-15T21:44:57.379Z,75.50
2023-01-15T21:49:00.153Z,75.40
2023-01-15T21:53:02.980Z,75.40
2023-01-15T21:57:06.578Z,75.40
2023-01-15T22:01:15.781Z,75.30
2023-01-15T22:05:23.848Z,75.60
2023-01-15T22:09:26.811Z,76.00
2023-01-15T22:13:29.613Z,76.40
2023-01-15T22:17:32.371Z,77.00
2023-01-15T22:21:35.456Z,77.70
2023-01-15T22:25:43.110Z,78.40
2023-01-15T22:29:45.953Z,79.00
2023-01-15T22:33:48.929Z,79.50
2023-01-15T22:37:51.679Z,79.90
2023-01-15T22:42:13.094Z,80.00
2023-01-15T22:46:16.318Z,80.30
2023-01-15T22:50:19.449Z,80.50
2023-01-15T22:54:22.474Z,80.60
2023-01-15T22:58:25.798Z,80.70
2023-01-15T23:02:47.305Z,80.70
2023-01-15T23:06:51.928Z,80.80
2023-01-15T23:10:54.939Z,81.00
2023-01-15T23:14:58.615Z,81.20
2023-01-15T23:19:01.997Z,81.30
2023-01-15T23:23:04.702Z,81.50
2023-01-15T23:27:07.405Z,81.70
2023-01-15T23:31:11.001Z,81.80
2023-01-15T23:35:13.830Z,81.80
2023-01-15T23:39:16.811Z,81.90
2023-01-15T23:43:38.129Z,81.90
2023-01-15T23:47:40.878Z,81.70
2023-01-15T23:51:43.789Z,81.70
2023-01-15T23:56:12.945Z,81.80
